sensor_id;sensor_type;location;lat;lon;timestamp;P1;durP1;ratioP1;P2;durP2;ratioP2
14992;SDS011;7592;51.088;13.732;2023-03-08T00:01:40;4.03;;;3.33;;
14992;SDS011;7592;51.088;13.732;2023-03-08T00:06:32;3.20;;;2.70;;
14992;SDS011;7592;51.088;13.732;2023-03-08T00:11:24;2.50;;;2.30;;
14992;SDS011;7592;51.088;13.732;2023-03-08T00:16:16;2.20;;;2.03;;
14992;SDS011;7592;51.088;13.732;2023-03-08T00:21:10;2.07;;;1.87;;
14992;SDS011;7592;51.088;13.732;2023-03-08T00:26:07;1.87;;;1.77;;
14992;SDS011;7592;51.088;13.732;2023-03-08T00:31:04;1.83;;;1.73;;
14992;SDS011;7592;51.088;13.732;2023-03-08T00:36:02;1.50;;;1.40;;
14992;SDS011;7592;51.088;13.732;2023-03-08T00:40:57;2.37;;;1.30;;
14992;SDS011;7592;51.088;13.732;2023-03-08T00:45:49;2.00;;;1.50;;
14992;SDS011;7592;51.088;13.732;2023-03-08T00:50:45;2.03;;;1.93;;
14992;SDS011;7592;51.088;13.732;2023-03-08T00:55:37;2.20;;;2.00;;
14992;SDS011;7592;51.088;13.732;2023-03-08T01:00:30;2.20;;;2.10;;
14992;SDS011;7592;51.088;13.732;2023-03-08T01:05:22;2.67;;;2.47;;
14992;SDS011;7592;51.088;13.732;2023-03-08T01:10:15;3.47;;;2.93;;
14992;SDS011;7592;51.088;13.732;2023-03-08T01:15:07;4.93;;;3.00;;
14992;SDS011;7592;51.088;13.732;2023-03-08T01:19:59;3.80;;;3.37;;
14992;SDS011;7592;51.088;13.732;2023-03-08T01:24:51;3.93;;;3.53;;
14992;SDS011;7592;51.088;13.732;2023-03-08T01:29:43;5.63;;;3.57;;
14992;SDS011;7592;51.088;13.732;2023-03-08T01:34:36;6.30;;;4.10;;
14992;SDS011;7592;51.088;13.732;2023-03-08T01:39:28;8.23;;;4.17;;
14992;SDS011;7592;51.088;13.732;2023-03-08T01:44:20;7.50;;;3.87;;
14992;SDS011;7592;51.088;13.732;2023-03-08T01:49:26;5.00;;;2.67;;
14992;SDS011;7592;51.088;13.732;2023-03-08T01:54:25;2.10;;;1.67;;
14992;SDS011;7592;51.088;13.732;2023-03-08T01:59:23;3.70;;;1.97;;
14992;SDS011;7592;51.088;13.732;2023-03-08T02:04:15;2.80;;;1.70;;
14992;SDS011;7592;51.088;13.732;2023-03-08T02:15:07;3.07;;;1.60;;
14992;SDS011;7592;51.088;13.732;2023-03-08T02:30:08;3.20;;;1.93;;
14992;SDS011;7592;51.088;13.732;2023-03-08T02:35:03;4.13;;;2.67;;
14992;SDS011;7592;51.088;13.732;2023-03-08T02:39:56;5.20;;;3.97;;
14992;SDS011;7592;51.088;13.732;2023-03-08T02:44:48;3.60;;;2.70;;
14992;SDS011;7592;51.088;13.732;2023-03-08T02:49:40;5.57;;;4.77;;
14992;SDS011;7592;51.088;13.732;2023-03-08T02:54:33;5.20;;;3.63;;
14992;SDS011;7592;51.088;13.732;2023-03-08T02:59:25;4.97;;;4.50;;
14992;SDS011;7592;51.088;13.732;2023-03-08T03:04:19;3.33;;;2.90;;
14992;SDS011;7592;51.088;13.732;2023-03-08T03:09:11;2.83;;;2.63;;
14992;SDS011;7592;51.088;13.732;2023-03-08T03:14:04;3.60;;;3.00;;
14992;SDS011;7592;51.088;13.732;2023-03-08T03:19:01;4.80;;;3.67;;
14992;SDS011;7592;51.088;13.732;2023-03-08T03:23:54;3.23;;;2.80;;
14992;SDS011;7592;51.088;13.732;2023-03-08T03:28:54;6.77;;;2.90;;
14992;SDS011;7592;51.088;13.732;2023-03-08T03:33:51;5.20;;;4.00;;
14992;SDS011;7592;51.088;13.732;2023-03-08T03:38:47;3.17;;;2.97;;
14992;SDS011;7592;51.088;13.732;2023-03-08T03:43:39;3.10;;;2.60;;
14992;SDS011;7592;51.088;13.732;2023-03-08T03:48:34;46.03;;;28.23;;
14992;SDS011;7592;51.088;13.732;2023-03-08T03:53:28;39.10;;;28.03;;
14992;SDS011;7592;51.088;13.732;2023-03-08T03:58:22;26.17;;;17.17;;
14992;SDS011;7592;51.088;13.732;2023-03-08T04:03:14;11.17;;;9.67;;
14992;SDS011;7592;51.088;13.732;2023-03-08T04:08:07;11.40;;;9.23;;
14992;SDS011;7592;51.088;13.732;2023-03-08T04:13:03;10.70;;;7.37;;
14992;SDS011;7592;51.088;13.732;2023-03-08T04:17:55;19.27;;;16.03;;
14992;SDS011;7592;51.088;13.732;2023-03-08T04:22:50;8.50;;;7.60;;
14992;SDS011;7592;51.088;13.732;2023-03-08T04:27:49;6.77;;;5.10;;
14992;SDS011;7592;51.088;13.732;2023-03-08T04:32:43;11.43;;;8.23;;
14992;SDS011;7592;51.088;13.732;2023-03-08T04:37:36;15.60;;;13.13;;
14992;SDS011;7592;51.088;13.732;2023-03-08T04:42:35;13.83;;;10.80;;
14992;SDS011;7592;51.088;13.732;2023-03-08T04:47:27;6.13;;;4.73;;
14992;SDS011;7592;51.088;13.732;2023-03-08T04:52:19;7.03;;;5.87;;
14992;SDS011;7592;51.088;13.732;2023-03-08T04:57:13;6.23;;;5.00;;
14992;SDS011;7592;51.088;13.732;2023-03-08T05:02:05;12.30;;;9.63;;
14992;SDS011;7592;51.088;13.732;2023-03-08T05:07:00;16.43;;;11.87;;
14992;SDS011;7592;51.088;13.732;2023-03-08T05:11:55;13.83;;;10.67;;
14992;SDS011;7592;51.088;13.732;2023-03-08T05:16:57;15.73;;;10.70;;
14992;SDS011;7592;51.088;13.732;2023-03-08T05:21:53;21.97;;;15.87;;
14992;SDS011;7592;51.088;13.732;2023-03-08T05:26:45;11.13;;;8.20;;
14992;SDS011;7592;51.088;13.732;2023-03-08T05:31:41;11.07;;;7.27;;
14992;SDS011;7592;51.088;13.732;2023-03-08T05:36:38;9.27;;;8.03;;
14992;SDS011;7592;51.088;13.732;2023-03-08T05:41:31;10.40;;;7.83;;
14992;SDS011;7592;51.088;13.732;2023-03-08T05:46:24;10.53;;;8.17;;
14992;SDS011;7592;51.088;13.732;2023-03-08T05:51:17;11.67;;;8.17;;
14992;SDS011;7592;51.088;13.732;2023-03-08T05:56:14;11.30;;;8.23;;
14992;SDS011;7592;51.088;13.732;2023-03-08T06:01:26;12.80;;;8.97;;
14992;SDS011;7592;51.088;13.732;2023-03-08T06:06:26;11.43;;;7.93;;
14992;SDS011;7592;51.088;13.732;2023-03-08T06:11:22;12.47;;;7.97;;
14992;SDS011;7592;51.088;13.732;2023-03-08T06:16:18;9.67;;;7.80;;
14992;SDS011;7592;51.088;13.732;2023-03-08T06:21:12;9.43;;;6.90;;
14992;SDS011;7592;51.088;13.732;2023-03-08T06:26:06;9.90;;;7.10;;
14992;SDS011;7592;51.088;13.732;2023-03-08T06:31:02;9.43;;;6.63;;
14992;SDS011;7592;51.088;13.732;2023-03-08T06:35:55;10.33;;;7.30;;
14992;SDS011;7592;51.088;13.732;2023-03-08T06:40:52;10.90;;;8.10;;
14992;SDS011;7592;51.088;13.732;2023-03-08T06:45:45;8.27;;;7.20;;
14992;SDS011;7592;51.088;13.732;2023-03-08T06:50:37;9.37;;;7.17;;
14992;SDS011;7592;51.088;13.732;2023-03-08T06:55:30;9.67;;;6.67;;
14992;SDS011;7592;51.088;13.732;2023-03-08T07:00:22;8.77;;;6.03;;
14992;SDS011;7592;51.088;13.732;2023-03-08T07:05:15;6.13;;;5.13;;
14992;SDS011;7592;51.088;13.732;2023-03-08T07:10:08;9.97;;;6.47;;
14992;SDS011;7592;51.088;13.732;2023-03-08T07:15:01;7.87;;;5.40;;
14992;SDS011;7592;51.088;13.732;2023-03-08T07:19:55;6.10;;;4.23;;
14992;SDS011;7592;51.088;13.732;2023-03-08T07:24:47;5.80;;;4.20;;
14992;SDS011;7592;51.088;13.732;2023-03-08T07:29:40;6.70;;;4.83;;
14992;SDS011;7592;51.088;13.732;2023-03-08T07:34:32;7.67;;;5.07;;
14992;SDS011;7592;51.088;13.732;2023-03-08T07:39:24;4.47;;;4.03;;
14992;SDS011;7592;51.088;13.732;2023-03-08T07:44:16;4.07;;;3.57;;
14992;SDS011;7592;51.088;13.732;2023-03-08T07:49:08;4.83;;;3.90;;
14992;SDS011;7592;51.088;13.732;2023-03-08T07:54:02;5.37;;;3.87;;
14992;SDS011;7592;51.088;13.732;2023-03-08T07:58:55;9.17;;;3.40;;
14992;SDS011;7592;51.088;13.732;2023-03-08T08:03:47;1.93;;;1.10;;
14992;SDS011;7592;51.088;13.732;2023-03-08T08:08:40;2.60;;;2.40;;
14992;SDS011;7592;51.088;13.732;2023-03-08T08:13:32;1.83;;;1.73;;
14992;SDS011;7592;51.088;13.732;2023-03-08T08:18:25;2.50;;;2.30;;
14992;SDS011;7592;51.088;13.732;2023-03-08T08:23:17;9.80;;;7.83;;
14992;SDS011;7592;51.088;13.732;2023-03-08T08:28:09;12.00;;;9.03;;
14992;SDS011;7592;51.088;13.732;2023-03-08T08:33:01;4.80;;;4.33;;
14992;SDS011;7592;51.088;13.732;2023-03-08T08:37:54;10.40;;;6.87;;
14992;SDS011;7592;51.088;13.732;2023-03-08T08:42:46;11.60;;;8.90;;
14992;SDS011;7592;51.088;13.732;2023-03-08T08:47:38;12.63;;;10.27;;
14992;SDS011;7592;51.088;13.732;2023-03-08T08:52:30;17.70;;;14.10;;
14992;SDS011;7592;51.088;13.732;2023-03-08T08:57:22;10.27;;;6.87;;
14992;SDS011;7592;51.088;13.732;2023-03-08T09:02:14;9.60;;;8.60;;
14992;SDS011;7592;51.088;13.732;2023-03-08T09:07:06;10.47;;;9.33;;
14992;SDS011;7592;51.088;13.732;2023-03-08T09:11:58;8.57;;;7.63;;
14992;SDS011;7592;51.088;13.732;2023-03-08T09:16:52;9.07;;;8.17;;
14992;SDS011;7592;51.088;13.732;2023-03-08T09:21:44;10.27;;;7.53;;
14992;SDS011;7592;51.088;13.732;2023-03-08T09:26:36;8.63;;;7.73;;
14992;SDS011;7592;51.088;13.732;2023-03-08T09:31:29;8.37;;;7.57;;
14992;SDS011;7592;51.088;13.732;2023-03-08T09:36:23;9.30;;;7.87;;
14992;SDS011;7592;51.088;13.732;2023-03-08T09:46:12;8.33;;;7.53;;
14992;SDS011;7592;51.088;13.732;2023-03-08T09:51:17;8.20;;;7.27;;
14992;SDS011;7592;51.088;13.732;2023-03-08T10:01:20;8.60;;;6.60;;
14992;SDS011;7592;51.088;13.732;2023-03-08T10:07:00;8.33;;;7.53;;
14992;SDS011;7592;51.088;13.732;2023-03-08T10:11:44;7.90;;;7.10;;
14992;SDS011;7592;51.088;13.732;2023-03-08T10:16:54;7.17;;;6.47;;
14992;SDS011;7592;51.088;13.732;2023-03-08T10:21:50;7.10;;;6.40;;
14992;SDS011;7592;51.088;13.732;2023-03-08T10:26:43;6.27;;;5.67;;
14992;SDS011;7592;51.088;13.732;2023-03-08T10:31:36;6.83;;;6.23;;
14992;SDS011;7592;51.088;13.732;2023-03-08T10:36:28;6.97;;;6.27;;
14992;SDS011;7592;51.088;13.732;2023-03-08T10:41:20;7.90;;;7.10;;
14992;SDS011;7592;51.088;13.732;2023-03-08T10:46:22;8.50;;;7.60;;
14992;SDS011;7592;51.088;13.732;2023-03-08T10:51:19;6.37;;;5.73;;
14992;SDS011;7592;51.088;13.732;2023-03-08T10:56:14;4.40;;;4.03;;
14992;SDS011;7592;51.088;13.732;2023-03-08T11:01:32;6.23;;;5.50;;
14992;SDS011;7592;51.088;13.732;2023-03-08T11:06:37;4.87;;;4.37;;
14992;SDS011;7592;51.088;13.732;2023-03-08T11:11:40;6.63;;;5.83;;
14992;SDS011;7592;51.088;13.732;2023-03-08T11:47:59;7.80;;;6.47;;
14992;SDS011;7592;51.088;13.732;2023-03-08T11:53:18;6.30;;;5.70;;
14992;SDS011;7592;51.088;13.732;2023-03-08T12:03:32;6.80;;;6.10;;
14992;SDS011;7592;51.088;13.732;2023-03-08T12:08:35;7.33;;;6.63;;
14992;SDS011;7592;51.088;13.732;2023-03-08T12:13:35;8.27;;;7.47;;
14992;SDS011;7592;51.088;13.732;2023-03-08T12:23:40;10.73;;;9.20;;
14992;SDS011;7592;51.088;13.732;2023-03-08T12:28:42;11.97;;;10.30;;
14992;SDS011;7592;51.088;13.732;2023-03-08T12:33:37;12.33;;;11.03;;
14992;SDS011;7592;51.088;13.732;2023-03-08T12:38:31;12.47;;;11.07;;
14992;SDS011;7592;51.088;13.732;2023-03-08T12:43:31;14.43;;;12.67;;
14992;SDS011;7592;51.088;13.732;2023-03-08T12:48:29;16.33;;;12.73;;
14992;SDS011;7592;51.088;13.732;2023-03-08T12:58:59;17.77;;;14.40;;
14992;SDS011;7592;51.088;13.732;2023-03-08T13:03:53;16.00;;;13.63;;
14992;SDS011;7592;51.088;13.732;2023-03-08T13:08:48;17.40;;;14.73;;
14992;SDS011;7592;51.088;13.732;2023-03-08T13:14:21;15.80;;;13.57;;
14992;SDS011;7592;51.088;13.732;2023-03-08T13:28:59;13.90;;;12.33;;
14992;SDS011;7592;51.088;13.732;2023-03-08T13:33:53;13.33;;;11.50;;
14992;SDS011;7592;51.088;13.732;2023-03-08T13:39:03;10.87;;;9.77;;
14992;SDS011;7592;51.088;13.732;2023-03-08T13:44:15;12.57;;;10.63;;
14992;SDS011;7592;51.088;13.732;2023-03-08T13:49:11;11.17;;;9.60;;
14992;SDS011;7592;51.088;13.732;2023-03-08T13:54:23;11.50;;;9.53;;
14992;SDS011;7592;51.088;13.732;2023-03-08T13:59:20;9.87;;;8.90;;
14992;SDS011;7592;51.088;13.732;2023-03-08T14:04:12;10.30;;;9.20;;
14992;SDS011;7592;51.088;13.732;2023-03-08T14:09:13;8.20;;;7.30;;
14992;SDS011;7592;51.088;13.732;2023-03-08T14:14:06;8.53;;;7.53;;
14992;SDS011;7592;51.088;13.732;2023-03-08T14:24:23;10.30;;;8.80;;
14992;SDS011;7592;51.088;13.732;2023-03-08T14:29:23;10.43;;;9.33;;
14992;SDS011;7592;51.088;13.732;2023-03-08T14:39:24;10.53;;;9.33;;
14992;SDS011;7592;51.088;13.732;2023-03-08T14:44:20;10.73;;;9.40;;
14992;SDS011;7592;51.088;13.732;2023-03-08T14:49:19;10.90;;;8.47;;
14992;SDS011;7592;51.088;13.732;2023-03-08T14:54:20;10.00;;;8.23;;
14992;SDS011;7592;51.088;13.732;2023-03-08T14:59:26;9.03;;;8.13;;
14992;SDS011;7592;51.088;13.732;2023-03-08T15:04:20;18.03;;;12.80;;
14992;SDS011;7592;51.088;13.732;2023-03-08T15:09:14;12.17;;;9.73;;
14992;SDS011;7592;51.088;13.732;2023-03-08T15:14:11;19.50;;;14.37;;
14992;SDS011;7592;51.088;13.732;2023-03-08T15:19:03;9.40;;;7.00;;
14992;SDS011;7592;51.088;13.732;2023-03-08T15:23:56;8.70;;;7.67;;
14992;SDS011;7592;51.088;13.732;2023-03-08T15:28:48;10.17;;;6.50;;
14992;SDS011;7592;51.088;13.732;2023-03-08T15:33:40;7.03;;;6.27;;
14992;SDS011;7592;51.088;13.732;2023-03-08T15:38:33;8.00;;;6.53;;
14992;SDS011;7592;51.088;13.732;2023-03-08T15:43:25;8.60;;;7.50;;
14992;SDS011;7592;51.088;13.732;2023-03-08T15:48:17;10.43;;;7.50;;
14992;SDS011;7592;51.088;13.732;2023-03-08T15:53:10;8.97;;;8.07;;
14992;SDS011;7592;51.088;13.732;2023-03-08T15:58:07;8.00;;;7.20;;
14992;SDS011;7592;51.088;13.732;2023-03-08T16:03:02;8.47;;;7.67;;
14992;SDS011;7592;51.088;13.732;2023-03-08T16:07:55;7.60;;;6.53;;
14992;SDS011;7592;51.088;13.732;2023-03-08T16:12:49;8.30;;;7.43;;
14992;SDS011;7592;51.088;13.732;2023-03-08T16:17:41;8.90;;;7.97;;
14992;SDS011;7592;51.088;13.732;2023-03-08T16:22:34;11.13;;;8.87;;
14992;SDS011;7592;51.088;13.732;2023-03-08T16:27:28;9.60;;;8.70;;
14992;SDS011;7592;51.088;13.732;2023-03-08T16:32:21;22.97;;;14.17;;
14992;SDS011;7592;51.088;13.732;2023-03-08T16:37:13;15.80;;;11.33;;
14992;SDS011;7592;51.088;13.732;2023-03-08T16:42:08;10.87;;;9.50;;
14992;SDS011;7592;51.088;13.732;2023-03-08T16:47:04;11.97;;;10.73;;
14992;SDS011;7592;51.088;13.732;2023-03-08T16:51:57;11.17;;;9.97;;
14992;SDS011;7592;51.088;13.732;2023-03-08T16:56:49;12.43;;;11.13;;
14992;SDS011;7592;51.088;13.732;2023-03-08T17:01:41;12.67;;;10.60;;
14992;SDS011;7592;51.088;13.732;2023-03-08T17:06:34;12.03;;;10.83;;
14992;SDS011;7592;51.088;13.732;2023-03-08T17:11:27;12.17;;;10.73;;
14992;SDS011;7592;51.088;13.732;2023-03-08T17:16:23;12.57;;;11.30;;
14992;SDS011;7592;51.088;13.732;2023-03-08T17:21:16;16.03;;;12.23;;
14992;SDS011;7592;51.088;13.732;2023-03-08T17:26:10;14.60;;;12.73;;
14992;SDS011;7592;51.088;13.732;2023-03-08T17:31:07;19.43;;;15.97;;
14992;SDS011;7592;51.088;13.732;2023-03-08T17:36:00;24.10;;;19.10;;
14992;SDS011;7592;51.088;13.732;2023-03-08T17:40:52;14.70;;;13.03;;
14992;SDS011;7592;51.088;13.732;2023-03-08T17:45:54;14.90;;;13.37;;
14992;SDS011;7592;51.088;13.732;2023-03-08T17:50:50;12.97;;;11.57;;
14992;SDS011;7592;51.088;13.732;2023-03-08T17:55:43;15.10;;;13.30;;
14992;SDS011;7592;51.088;13.732;2023-03-08T18:00:35;16.03;;;14.13;;
14992;SDS011;7592;51.088;13.732;2023-03-08T18:05:28;14.97;;;13.40;;
14992;SDS011;7592;51.088;13.732;2023-03-08T18:10:20;20.30;;;17.93;;
14992;SDS011;7592;51.088;13.732;2023-03-08T18:15:12;21.03;;;17.23;;
14992;SDS011;7592;51.088;13.732;2023-03-08T18:20:04;18.27;;;14.43;;
14992;SDS011;7592;51.088;13.732;2023-03-08T18:24:58;21.60;;;16.37;;
14992;SDS011;7592;51.088;13.732;2023-03-08T18:29:50;16.10;;;14.07;;
14992;SDS011;7592;51.088;13.732;2023-03-08T18:34:42;20.13;;;15.00;;
14992;SDS011;7592;51.088;13.732;2023-03-08T18:39:34;35.13;;;28.73;;
14992;SDS011;7592;51.088;13.732;2023-03-08T18:44:26;19.17;;;15.53;;
14992;SDS011;7592;51.088;13.732;2023-03-08T18:49:18;25.43;;;19.80;;
14992;SDS011;7592;51.088;13.732;2023-03-08T18:54:11;24.83;;;18.70;;
14992;SDS011;7592;51.088;13.732;2023-03-08T18:59:06;22.23;;;16.53;;
14992;SDS011;7592;51.088;13.732;2023-03-08T19:04:01;20.27;;;16.30;;
14992;SDS011;7592;51.088;13.732;2023-03-08T19:08:56;21.80;;;15.97;;
14992;SDS011;7592;51.088;13.732;2023-03-08T19:13:48;19.67;;;17.20;;
14992;SDS011;7592;51.088;13.732;2023-03-08T19:18:41;26.37;;;17.90;;
14992;SDS011;7592;51.088;13.732;2023-03-08T19:23:33;18.33;;;14.97;;
14992;SDS011;7592;51.088;13.732;2023-03-08T19:28:25;17.37;;;15.53;;
14992;SDS011;7592;51.088;13.732;2023-03-08T19:33:17;17.17;;;13.90;;
14992;SDS011;7592;51.088;13.732;2023-03-08T19:38:22;18.00;;;14.63;;
14992;SDS011;7592;51.088;13.732;2023-03-08T19:43:14;18.30;;;15.07;;
14992;SDS011;7592;51.088;13.732;2023-03-08T19:48:06;21.10;;;16.33;;
14992;SDS011;7592;51.088;13.732;2023-03-08T19:52:58;21.87;;;16.10;;
14992;SDS011;7592;51.088;13.732;2023-03-08T19:57:53;19.80;;;15.57;;
14992;SDS011;7592;51.088;13.732;2023-03-08T20:02:45;25.00;;;19.20;;
14992;SDS011;7592;51.088;13.732;2023-03-08T20:07:38;21.87;;;17.17;;
14992;SDS011;7592;51.088;13.732;2023-03-08T20:12:30;22.03;;;17.50;;
14992;SDS011;7592;51.088;13.732;2023-03-08T20:17:23;20.37;;;17.13;;
14992;SDS011;7592;51.088;13.732;2023-03-08T20:22:18;19.47;;;16.20;;
14992;SDS011;7592;51.088;13.732;2023-03-08T20:27:11;21.57;;;16.57;;
14992;SDS011;7592;51.088;13.732;2023-03-08T20:32:03;19.43;;;15.43;;
14992;SDS011;7592;51.088;13.732;2023-03-08T20:36:56;18.33;;;15.20;;
14992;SDS011;7592;51.088;13.732;2023-03-08T20:41:48;17.50;;;15.10;;
14992;SDS011;7592;51.088;13.732;2023-03-08T20:46:40;18.20;;;15.23;;
14992;SDS011;7592;51.088;13.732;2023-03-08T20:51:32;17.63;;;15.20;;
14992;SDS011;7592;51.088;13.732;2023-03-08T20:56:24;17.33;;;14.30;;
14992;SDS011;7592;51.088;13.732;2023-03-08T21:01:18;15.03;;;13.40;;
14992;SDS011;7592;51.088;13.732;2023-03-08T21:06:23;17.67;;;14.67;;
14992;SDS011;7592;51.088;13.732;2023-03-08T21:11:18;21.57;;;16.97;;
14992;SDS011;7592;51.088;13.732;2023-03-08T21:16:11;23.57;;;17.73;;
14992;SDS011;7592;51.088;13.732;2023-03-08T21:21:06;19.20;;;15.63;;
14992;SDS011;7592;51.088;13.732;2023-03-08T21:25:58;20.27;;;16.53;;
14992;SDS011;7592;51.088;13.732;2023-03-08T21:30:51;40.60;;;31.17;;
14992;SDS011;7592;51.088;13.732;2023-03-08T21:35:43;22.27;;;18.00;;
14992;SDS011;7592;51.088;13.732;2023-03-08T21:40:36;23.70;;;18.60;;
14992;SDS011;7592;51.088;13.732;2023-03-08T21:45:29;29.17;;;21.50;;
14992;SDS011;7592;51.088;13.732;2023-03-08T21:50:21;24.43;;;20.70;;
14992;SDS011;7592;51.088;13.732;2023-03-08T21:55:15;21.23;;;17.50;;
14992;SDS011;7592;51.088;13.732;2023-03-08T22:00:10;28.23;;;21.77;;
14992;SDS011;7592;51.088;13.732;2023-03-08T22:05:03;54.63;;;37.50;;
14992;SDS011;7592;51.088;13.732;2023-03-08T22:09:55;25.67;;;20.07;;
14992;SDS011;7592;51.088;13.732;2023-03-08T22:14:47;23.20;;;18.77;;
14992;SDS011;7592;51.088;13.732;2023-03-08T22:19:39;21.87;;;17.87;;
14992;SDS011;7592;51.088;13.732;2023-03-08T22:24:31;20.47;;;16.97;;
14992;SDS011;7592;51.088;13.732;2023-03-08T22:29:23;22.70;;;17.40;;
14992;SDS011;7592;51.088;13.732;2023-03-08T22:34:15;21.87;;;16.77;;
14992;SDS011;7592;51.088;13.732;2023-03-08T22:39:07;21.47;;;17.10;;
14992;SDS011;7592;51.088;13.732;2023-03-08T22:44:04;23.43;;;17.97;;
14992;SDS011;7592;51.088;13.732;2023-03-08T22:48:57;23.23;;;17.63;;
14992;SDS011;7592;51.088;13.732;2023-03-08T22:53:49;22.80;;;18.27;;
14992;SDS011;7592;51.088;13.732;2023-03-08T22:58:42;27.00;;;20.10;;
14992;SDS011;7592;51.088;13.732;2023-03-08T23:03:34;22.87;;;18.53;;
14992;SDS011;7592;51.088;13.732;2023-03-08T23:08:26;22.90;;;18.83;;
14992;SDS011;7592;51.088;13.732;2023-03-08T23:13:19;21.53;;;17.57;;
14992;SDS011;7592;51.088;13.732;2023-03-08T23:18:24;22.97;;;18.10;;
14992;SDS011;7592;51.088;13.732;2023-03-08T23:23:16;24.30;;;19.53;;
14992;SDS011;7592;51.088;13.732;2023-03-08T23:28:08;25.17;;;18.77;;
14992;SDS011;7592;51.088;13.732;2023-03-08T23:33:01;39.83;;;26.07;;
14992;SDS011;7592;51.088;13.732;2023-03-08T23:37:53;100.77;;;55.73;;
14992;SDS011;7592;51.088;13.732;2023-03-08T23:42:45;26.73;;;20.30;;
14992;SDS011;7592;51.088;13.732;2023-03-08T23:47:37;239.73;;;127.80;;
14992;SDS011;7592;51.088;13.732;2023-03-08T23:52:29;157.00;;;85.93;;
14992;SDS011;7592;51.088;13.732;2023-03-08T23:57:21;32.93;;;22.50;;
